createdAt,value
2018-04-16T00:01:52.235Z,95493.11
2018-04-16T00:04:19.311Z,95487.67
2018-04-16T00:06:46.397Z,95482.17
2018-04-16T00:09:13.512Z,95486.08
2018-04-16T00:11:40.379Z,95481.13
2018-04-16T00:16:41.140Z,95470.45
2018-04-16T00:19:08.989Z,95470.83
2018-04-16T00:21:36.261Z,95467.16
2018-04-16T00:24:05.022Z,95466.45
2018-04-16T00:26:32.833Z,95474.88
2018-04-16T00:29:00.837Z,95473.37
2018-04-16T00:31:33.740Z,95471.17
2018-04-16T00:34:07.184Z,95470.70
2018-04-16T00:36:40.933Z,95468.19
2018-04-16T00:39:15.081Z,95471.73
2018-04-16T00:41:48.257Z,95476.36
2018-04-16T00:44:21.852Z,95461.11
2018-04-16T00:46:55.036Z,95472.34
2018-04-16T00:49:28.359Z,95465.19
2018-04-16T00:52:02.585Z,95456.04
2018-04-16T00:54:36.825Z,95468.04
2018-04-16T00:57:10.516Z,95466.08
2018-04-16T00:59:43.116Z,95472.87
2018-04-16T01:02:16.471Z,95468.48
2018-04-16T01:04:49.412Z,95476.83
2018-04-16T01:07:22.861Z,95481.80
2018-04-16T01:09:56.075Z,95478.86
2018-04-16T01:12:29.663Z,95477.11
2018-04-16T01:15:02.553Z,95485.72
2018-04-16T01:17:35.757Z,95485.41
2018-04-16T01:20:10.662Z,95475.63
2018-04-16T01:22:43.510Z,95473.52
2018-04-16T01:25:16.428Z,95475.84
2018-04-16T01:27:49.552Z,95472.06
2018-04-16T01:30:22.947Z,95470.30
2018-04-16T01:32:56.307Z,95471.68
2018-04-16T01:35:30.669Z,95469.39
2018-04-16T01:38:05.402Z,95457.77
2018-04-16T01:40:38.366Z,95459.61
2018-04-16T01:43:10.858Z,95453.25
2018-04-16T01:45:44.306Z,95452.41
2018-04-16T01:48:18.046Z,95458.95
2018-04-16T01:50:50.782Z,95453.70
2018-04-16T01:53:24.435Z,95452.90
2018-04-16T01:55:57.745Z,95455.03
2018-04-16T01:58:31.581Z,95448.84
2018-04-16T02:01:12.360Z,95444.90
2018-04-16T02:03:45.453Z,95444.40
2018-04-16T02:06:26.413Z,95441.38
2018-04-16T02:12:02.463Z,95461.36
2018-04-16T02:14:35.261Z,95453.88
2018-04-16T02:17:08.155Z,95437.26
2018-04-16T02:19:41.017Z,95442.88
2018-04-16T02:22:13.852Z,95445.72
2018-04-16T02:24:47.365Z,95441.45
2018-04-16T02:27:20.155Z,95446.06
2018-04-16T02:29:53.503Z,95444.90
2018-04-16T02:35:30.142Z,95455.50
2018-04-16T02:38:02.940Z,95438.23
2018-04-16T02:40:35.833Z,95439.00
2018-04-16T02:43:08.790Z,95444.66
2018-04-16T02:45:41.665Z,95442.45
2018-04-16T02:48:14.840Z,95442.96
2018-04-16T02:50:48.589Z,95439.45
2018-04-16T02:53:21.851Z,95444.81
2018-04-16T02:55:55.039Z,95444.31
2018-04-16T02:58:28.497Z,95443.06
2018-04-16T03:01:03.607Z,95440.81
2018-04-16T03:03:36.510Z,95447.66
2018-04-16T03:06:09.481Z,95445.99
2018-04-16T03:08:42.812Z,95449.76
2018-04-16T03:11:15.553Z,95452.44
2018-04-16T03:13:48.840Z,95458.16
2018-04-16T03:16:23.623Z,95441.45
2018-04-16T03:18:57.639Z,95443.95
2018-04-16T03:21:31.542Z,95443.36
2018-04-16T03:24:06.697Z,95446.80
2018-04-16T03:26:40.905Z,95439.86
2018-04-16T03:29:17.819Z,95438.41
2018-04-16T03:31:51.980Z,95434.73
2018-04-16T03:34:25.530Z,95433.77
2018-04-16T03:36:59.632Z,95426.25
2018-04-16T03:39:33.222Z,95420.20
2018-04-16T03:42:08.493Z,95425.38
2018-04-16T03:44:42.008Z,95433.97
2018-04-16T03:47:22.582Z,95445.78
2018-04-16T03:49:55.706Z,95450.64
2018-04-16T03:52:29.208Z,95435.41
2018-04-16T03:54:58.486Z,95433.16
2018-04-16T03:57:25.386Z,95429.70
2018-04-16T03:59:52.511Z,95429.66
2018-04-16T04:02:19.922Z,95431.23
2018-04-16T04:04:46.688Z,95435.58
2018-04-16T04:07:15.126Z,95439.04
2018-04-16T04:09:49.749Z,95418.17
2018-04-16T04:12:17.437Z,95432.44
2018-04-16T04:14:45.636Z,95433.67
2018-04-16T04:17:12.432Z,95428.17
2018-04-16T04:19:39.097Z,95422.13
2018-04-16T04:22:06.311Z,95427.83
2018-04-16T04:24:46.367Z,95427.84
2018-04-16T04:27:26.953Z,95439.73
2018-04-16T04:30:06.711Z,95440.14
2018-04-16T04:32:33.949Z,95438.02
2018-04-16T04:35:01.052Z,95442.13
2018-04-16T04:37:28.897Z,95449.95
2018-04-16T04:39:55.777Z,95432.40
2018-04-16T04:42:22.717Z,95428.98
2018-04-16T04:44:50.204Z,95426.83
2018-04-16T04:47:19.944Z,95427.80
2018-04-16T04:49:48.581Z,95426.34
2018-04-16T04:52:16.353Z,95422.66
2018-04-16T04:54:43.699Z,95425.69
2018-04-16T04:57:10.621Z,95419.94
2018-04-16T04:59:37.440Z,95429.61
2018-04-16T05:02:04.914Z,95433.47
2018-04-16T05:04:31.461Z,95433.28
2018-04-16T05:07:01.048Z,95435.13
2018-04-16T05:09:30.227Z,95432.34
2018-04-16T05:11:57.376Z,95437.13
2018-04-16T05:14:26.322Z,95441.73
2018-04-16T05:16:53.925Z,95433.90
2018-04-16T05:19:22.117Z,95439.48
2018-04-16T05:21:50.568Z,95437.17
2018-04-16T05:24:17.116Z,95429.64
2018-04-16T05:26:46.249Z,95420.46
2018-04-16T05:29:12.742Z,95421.44
2018-04-16T05:31:42.667Z,95426.79
2018-04-16T05:34:10.025Z,95426.60
2018-04-16T05:36:37.644Z,95431.56
2018-04-16T05:39:07.824Z,95435.29
2018-04-16T05:41:35.300Z,95434.23
2018-04-16T05:44:03.988Z,95436.77
2018-04-16T05:46:32.001Z,95433.38
2018-04-16T05:49:01.042Z,95429.35
2018-04-16T05:51:28.341Z,95427.06
2018-04-16T05:53:55.733Z,95427.94
2018-04-16T05:56:22.248Z,95427.82
2018-04-16T05:58:51.005Z,95428.59
2018-04-16T06:01:18.064Z,95436.88
2018-04-16T06:03:46.011Z,95441.64
2018-04-16T06:06:13.347Z,95432.52
2018-04-16T06:08:40.188Z,95424.34
2018-04-16T06:11:10.575Z,95420.08
2018-04-16T06:13:38.970Z,95428.77
2018-04-16T06:16:06.307Z,95422.75
2018-04-16T06:18:33.297Z,95424.53
2018-04-16T06:21:04.025Z,95426.41
2018-04-16T06:23:32.295Z,95418.64
2018-04-16T06:25:59.455Z,95407.27
2018-04-16T06:28:26.731Z,95410.36
2018-04-16T06:30:54.769Z,95406.30
2018-04-16T06:33:22.355Z,95404.38
2018-04-16T06:35:50.280Z,95392.92
2018-04-16T06:38:20.780Z,95395.40
2018-04-16T06:40:48.873Z,95403.63
2018-04-16T06:43:17.421Z,95401.19
2018-04-16T06:45:44.173Z,95394.45
2018-04-16T06:48:11.228Z,95396.86
2018-04-16T06:50:39.853Z,95404.47
2018-04-16T06:53:09.189Z,95393.19
2018-04-16T06:55:36.183Z,95386.75
2018-04-16T06:58:03.561Z,95388.16
2018-04-16T07:00:30.551Z,95382.56
2018-04-16T07:02:58.174Z,95392.55
2018-04-16T07:05:26.508Z,95389.06
2018-04-16T07:07:53.999Z,95388.38
2018-04-16T07:10:22.155Z,95383.09
2018-04-16T07:12:50.446Z,95381.23
2018-04-16T07:15:18.444Z,95380.88
2018-04-16T07:17:45.698Z,95381.92
2018-04-16T07:20:13.066Z,95383.30
2018-04-16T07:22:42.516Z,95387.27
2018-04-16T07:25:10.790Z,95390.14
2018-04-16T07:27:38.797Z,95396.13
2018-04-16T07:30:06.197Z,95387.69
2018-04-16T07:32:34.044Z,95389.72
2018-04-16T07:35:04.684Z,95392.72
2018-04-16T07:37:32.689Z,95406.73
2018-04-16T07:39:59.235Z,95406.84
2018-04-16T07:42:26.870Z,95409.57
2018-04-16T07:44:56.070Z,95408.95
2018-04-16T07:47:26.269Z,95407.93
2018-04-16T07:49:55.410Z,95414.55
2018-04-16T07:52:24.706Z,95418.52
2018-04-16T07:54:54.626Z,95420.67
2018-04-16T07:57:22.903Z,95435.84
2018-04-16T07:59:51.303Z,95440.06
2018-04-16T08:02:18.168Z,95439.14
2018-04-16T08:04:45.316Z,95440.57
2018-04-16T08:07:12.116Z,95446.47
2018-04-16T08:09:38.557Z,95444.95
2018-04-16T08:12:05.438Z,95452.83
2018-04-16T08:14:32.994Z,95452.65
2018-04-16T08:17:00.584Z,95457.64
2018-04-16T08:19:29.978Z,95455.88
2018-04-16T08:21:59.024Z,95462.16
2018-04-16T08:24:26.757Z,95455.75
2018-04-16T08:26:53.828Z,95463.88
2018-04-16T08:29:21.367Z,95460.46
2018-04-16T08:31:49.385Z,95456.25
2018-04-16T08:34:17.064Z,95441.79
2018-04-16T08:36:44.497Z,95440.33
2018-04-16T08:39:11.845Z,95442.09
2018-04-16T08:41:39.466Z,95436.07
2018-04-16T08:44:06.873Z,95433.37
2018-04-16T08:46:35.300Z,95432.53
2018-04-16T08:49:03.481Z,95418.13
2018-04-16T08:51:31.451Z,95406.97
2018-04-16T08:53:58.334Z,95409.70
2018-04-16T08:56:26.242Z,95397.67
2018-04-16T08:58:53.344Z,95397.00
2018-04-16T09:01:20.936Z,95398.81
2018-04-16T09:03:49.409Z,95397.02
2018-04-16T09:06:16.747Z,95391.98
2018-04-16T09:08:43.969Z,95392.34
2018-04-16T09:11:11.971Z,95386.14
2018-04-16T09:13:39.646Z,95400.21
2018-04-16T09:16:08.013Z,95396.91
2018-04-16T09:18:36.524Z,95404.78
2018-04-16T09:21:05.972Z,95413.36
2018-04-16T09:23:34.621Z,95419.50
2018-04-16T09:26:02.419Z,95434.94
2018-04-16T09:28:30.706Z,95448.08
2018-04-16T09:30:57.985Z,95436.14
2018-04-16T09:33:24.819Z,95429.48
2018-04-16T09:35:52.247Z,95423.55
2018-04-16T09:38:21.407Z,95415.59
2018-04-16T09:40:49.244Z,95404.06
2018-04-16T09:43:17.157Z,95411.52
2018-04-16T09:45:44.909Z,95419.59
2018-04-16T09:48:13.603Z,95415.78
2018-04-16T09:50:40.754Z,95408.69
2018-04-16T09:53:09.021Z,95420.23
2018-04-16T09:55:37.460Z,95434.70
2018-04-16T09:58:05.125Z,95434.80
2018-04-16T10:00:38.034Z,95418.53
2018-04-16T10:03:07.341Z,95426.80
2018-04-16T10:05:35.007Z,95435.42
2018-04-16T10:08:02.565Z,95436.19
2018-04-16T10:10:29.105Z,95416.06
2018-04-16T10:12:57.791Z,95414.41
2018-04-16T10:15:24.920Z,95416.84
2018-04-16T10:17:54.599Z,95415.39
2018-04-16T10:20:22.220Z,95419.03
2018-04-16T10:22:48.659Z,95426.55
2018-04-16T10:25:15.574Z,95420.61
2018-04-16T10:27:43.469Z,95422.23
2018-04-16T10:30:10.866Z,95406.75
2018-04-16T10:32:38.553Z,95408.96
2018-04-16T10:35:05.716Z,95411.56
2018-04-16T10:37:33.201Z,95403.67
2018-04-16T10:40:02.901Z,95398.81
2018-04-16T10:42:30.714Z,95394.71
2018-04-16T10:44:58.527Z,95406.34
2018-04-16T10:47:26.138Z,95404.91
2018-04-16T10:49:53.026Z,95404.11
2018-04-16T10:52:20.649Z,95414.23
2018-04-16T10:54:47.752Z,95401.91
2018-04-16T10:57:15.289Z,95396.03
2018-04-16T10:59:42.710Z,95397.97
2018-04-16T11:02:09.899Z,95403.86
2018-04-16T11:04:37.721Z,95404.92
2018-04-16T11:07:05.283Z,95399.71
2018-04-16T11:09:32.125Z,95389.08
2018-04-16T11:12:02.144Z,95391.92
2018-04-16T11:14:30.420Z,95365.59
2018-04-16T11:16:57.931Z,95357.05
2018-04-16T11:19:25.066Z,95364.61
2018-04-16T11:21:52.137Z,95373.72
2018-04-16T11:24:18.953Z,95370.41
2018-04-16T11:26:46.272Z,95361.11
2018-04-16T11:29:13.189Z,95378.91
2018-04-16T11:31:41.196Z,95378.45
2018-04-16T11:34:08.585Z,95379.54
2018-04-16T11:36:35.397Z,95393.91
2018-04-16T11:39:02.910Z,95388.03
2018-04-16T11:41:31.334Z,95390.66
2018-04-16T11:44:00.149Z,95384.72
2018-04-16T11:46:28.334Z,95377.06
2018-04-16T11:48:56.236Z,95371.85
2018-04-16T11:51:24.144Z,95360.53
2018-04-16T11:53:58.922Z,95359.27
2018-04-16T11:56:25.830Z,95364.59
2018-04-16T11:58:53.723Z,95363.61
2018-04-16T12:01:20.774Z,95355.45
2018-04-16T12:03:50.691Z,95347.90
2018-04-16T12:06:19.330Z,95344.66
2018-04-16T12:08:46.795Z,95353.38
2018-04-16T12:11:15.048Z,95353.52
2018-04-16T12:13:43.231Z,95362.41
2018-04-16T12:16:10.454Z,95366.37
2018-04-16T12:18:37.287Z,95347.49
2018-04-16T12:21:04.133Z,95331.92
2018-04-16T12:23:31.068Z,95329.66
2018-04-16T12:25:59.220Z,95332.77
2018-04-16T12:28:26.546Z,95330.81
2018-04-16T12:30:54.390Z,95339.23
2018-04-16T12:33:22.035Z,95339.11
2018-04-16T12:35:51.806Z,95323.24
2018-04-16T12:38:18.526Z,95321.31
2018-04-16T12:40:46.376Z,95333.98
2018-04-16T12:43:13.809Z,95325.75
2018-04-16T12:45:42.005Z,95320.94
2018-04-16T12:48:11.410Z,95319.16
2018-04-16T12:50:38.475Z,95316.11
2018-04-16T12:53:06.591Z,95315.52
2018-04-16T12:55:34.639Z,95313.41
2018-04-16T12:58:03.196Z,95308.52
2018-04-16T13:00:30.500Z,95298.62
2018-04-16T13:02:57.922Z,95306.78
2018-04-16T13:05:24.392Z,95307.52
2018-04-16T13:07:51.406Z,95307.27
2018-04-16T13:10:19.696Z,95312.23
2018-04-16T13:12:49.669Z,95307.73
2018-04-16T13:15:17.525Z,95309.20
2018-04-16T13:17:45.425Z,95316.07
2018-04-16T13:20:12.279Z,95301.66
2018-04-16T13:22:41.448Z,95303.12
2018-04-16T13:25:10.139Z,95306.70
2018-04-16T13:27:38.196Z,95308.03
2018-04-16T13:30:07.533Z,95308.38
2018-04-16T13:32:35.845Z,95307.67
2018-04-16T13:35:03.527Z,95298.04
2018-04-16T13:37:31.218Z,95295.04
2018-04-16T13:39:58.863Z,95291.64
2018-04-16T13:42:25.865Z,95292.75
2018-04-16T13:44:53.104Z,95301.17
2018-04-16T13:47:22.620Z,95281.46
2018-04-16T13:49:52.563Z,95290.42
2018-04-16T13:52:21.749Z,95290.48
2018-04-16T13:54:49.025Z,95295.71
2018-04-16T13:57:17.241Z,95303.70
2018-04-16T13:59:44.462Z,95325.73
2018-04-16T14:02:11.524Z,95331.71
2018-04-16T14:04:39.249Z,95326.17
2018-04-16T14:07:05.862Z,95333.02
2018-04-16T14:09:32.860Z,95335.71
2018-04-16T14:12:02.697Z,95345.91
2018-04-16T14:14:32.805Z,95351.48
2018-04-16T14:17:01.033Z,95353.34
2018-04-16T14:19:27.925Z,95350.00
2018-04-16T14:21:55.223Z,95352.27
2018-04-16T14:24:22.521Z,95353.23
2018-04-16T14:26:49.787Z,95356.97
2018-04-16T14:29:17.800Z,95353.34
2018-04-16T14:31:45.453Z,95351.13
2018-04-16T14:34:13.094Z,95352.30
2018-04-16T14:36:41.836Z,95354.23
2018-04-16T14:39:11.397Z,95351.41
2018-04-16T14:41:38.477Z,95347.12
2018-04-16T14:44:05.387Z,95348.97
2018-04-16T14:46:33.084Z,95348.11
2018-04-16T14:49:01.801Z,95360.96
2018-04-16T14:51:31.620Z,95360.37
2018-04-16T14:54:01.198Z,95352.70
2018-04-16T14:56:30.709Z,95356.59
2018-04-16T14:59:00.085Z,95359.50
2018-04-16T15:01:30.224Z,95345.08
2018-04-16T15:03:58.213Z,95346.39
2018-04-16T15:06:29.258Z,95349.60
2018-04-16T15:08:58.094Z,95347.21
2018-04-16T15:11:25.294Z,95349.41
2018-04-16T15:13:53.580Z,95344.79
2018-04-16T15:16:20.957Z,95341.23
2018-04-16T15:18:50.432Z,95350.28
2018-04-16T15:21:19.392Z,95349.66
2018-04-16T15:23:53.072Z,95351.42
2018-04-16T15:26:21.067Z,95359.14
2018-04-16T15:28:50.206Z,95357.47
2018-04-16T15:31:18.842Z,95364.69
2018-04-16T15:33:46.361Z,95355.86
2018-04-16T15:36:14.583Z,95347.14
2018-04-16T15:38:44.793Z,95346.47
2018-04-16T15:41:13.447Z,95343.59
2018-04-16T15:43:40.865Z,95356.71
2018-04-16T15:46:11.157Z,95359.23
2018-04-16T15:48:40.369Z,95361.06
2018-04-16T15:51:12.778Z,95363.14
2018-04-16T15:53:40.962Z,95354.56
2018-04-16T15:56:09.290Z,95348.55
2018-04-16T15:58:35.759Z,95350.16
2018-04-16T16:01:03.838Z,95352.77
2018-04-16T16:03:33.740Z,95348.17
2018-04-16T16:06:02.930Z,95338.53
2018-04-16T16:08:32.423Z,95340.59
2018-04-16T16:10:59.828Z,95340.95
2018-04-16T16:13:28.881Z,95332.45
2018-04-16T16:15:56.361Z,95328.63
2018-04-16T16:18:24.070Z,95335.09
2018-04-16T16:20:50.823Z,95338.66
2018-04-16T16:23:19.447Z,95337.60
2018-04-16T16:25:48.708Z,95321.94
2018-04-16T16:28:16.255Z,95311.23
2018-04-16T16:30:44.859Z,95314.97
2018-04-16T16:33:14.645Z,95304.50
2018-04-16T16:35:42.575Z,95300.19
2018-04-16T16:38:11.511Z,95300.07
2018-04-16T16:40:39.585Z,95301.48
2018-04-16T16:43:06.641Z,95310.56
2018-04-16T16:45:36.900Z,95316.28
2018-04-16T16:48:03.906Z,95314.00
2018-04-16T16:50:33.204Z,95321.60
2018-04-16T16:53:00.997Z,95316.38
2018-04-16T16:55:28.825Z,95311.70
2018-04-16T16:57:57.282Z,95316.63
2018-04-16T17:00:25.881Z,95315.05
2018-04-16T17:02:53.813Z,95322.98
2018-04-16T17:05:21.301Z,95332.76
2018-04-16T17:07:50.143Z,95325.61
2018-04-16T17:10:17.673Z,95317.23
2018-04-16T17:12:45.160Z,95316.81
2018-04-16T17:15:12.605Z,95321.20
2018-04-16T17:17:39.987Z,95320.70
2018-04-16T17:20:07.503Z,95319.66
2018-04-16T17:22:34.496Z,95318.09
2018-04-16T17:25:05.024Z,95319.06
2018-04-16T17:27:33.407Z,95313.58
2018-04-16T17:30:00.068Z,95316.91
2018-04-16T17:32:27.184Z,95316.93
2018-04-16T17:34:54.763Z,95322.14
2018-04-16T17:37:22.510Z,95322.16
2018-04-16T17:39:51.280Z,95334.27
2018-04-16T17:42:18.497Z,95332.48
2018-04-16T17:44:45.725Z,95331.70
2018-04-16T17:47:13.086Z,95328.44
2018-04-16T17:49:40.423Z,95328.02
2018-04-16T17:52:07.011Z,95337.52
2018-04-16T17:54:34.029Z,95337.14
2018-04-16T17:57:02.040Z,95341.50
2018-04-16T17:59:28.985Z,95339.59
2018-04-16T18:01:56.353Z,95335.39
2018-04-16T18:04:24.104Z,95331.85
2018-04-16T18:06:51.085Z,95332.00
2018-04-16T18:09:17.960Z,95341.18
2018-04-16T18:11:44.680Z,95340.14
2018-04-16T18:14:11.425Z,95342.56
2018-04-16T18:16:38.016Z,95348.84
2018-04-16T18:19:04.701Z,95348.83
2018-04-16T18:21:31.768Z,95343.37
2018-04-16T18:23:58.576Z,95346.03
2018-04-16T18:26:25.295Z,95341.78
2018-04-16T18:28:52.147Z,95345.72
2018-04-16T18:31:20.590Z,95341.06
2018-04-16T18:33:54.836Z,95335.56
2018-04-16T18:36:22.466Z,95339.04
2018-04-16T18:38:49.551Z,95330.88
2018-04-16T18:41:16.067Z,95337.79
2018-04-16T18:43:42.938Z,95340.32
2018-04-16T18:46:09.378Z,95332.94
2018-04-16T18:48:37.242Z,95346.67
2018-04-16T18:51:08.312Z,95347.84
2018-04-16T18:53:36.156Z,95360.17
2018-04-16T18:56:12.066Z,95361.22
2018-04-16T18:58:43.295Z,95356.73
2018-04-16T19:01:11.211Z,95352.32
2018-04-16T19:03:39.721Z,95356.03
2018-04-16T19:06:06.900Z,95358.54
2018-04-16T19:08:33.502Z,95354.23
2018-04-16T19:10:59.953Z,95348.75
2018-04-16T19:13:27.083Z,95353.94
2018-04-16T19:15:55.454Z,95357.09
2018-04-16T19:18:22.752Z,95359.72
2018-04-16T19:20:55.555Z,95369.91
2018-04-16T19:23:22.213Z,95374.81
2018-04-16T19:25:48.721Z,95372.88
2018-04-16T19:28:15.921Z,95366.87
2018-04-16T19:30:42.779Z,95368.34
2018-04-16T19:33:16.673Z,95367.27
2018-04-16T19:35:43.400Z,95367.05
2018-04-16T19:38:10.529Z,95361.05
2018-04-16T19:40:38.736Z,95353.84
2018-04-16T19:43:06.724Z,95361.03
2018-04-16T19:45:33.413Z,95366.27
2018-04-16T19:48:00.741Z,95359.48
2018-04-16T19:50:27.836Z,95363.72
2018-04-16T19:52:55.469Z,95369.85
2018-04-16T19:55:22.426Z,95372.55
2018-04-16T19:57:55.197Z,95371.48
2018-04-16T20:00:22.238Z,95368.77
2018-04-16T20:02:55.594Z,95366.72
2018-04-16T20:05:22.785Z,95366.77
2018-04-16T20:07:49.700Z,95372.86
2018-04-16T20:10:16.541Z,95369.91
2018-04-16T20:12:43.221Z,95379.91
2018-04-16T20:15:09.608Z,95366.67
2018-04-16T20:17:37.202Z,95372.39
2018-04-16T20:20:03.968Z,95371.84
2018-04-16T20:22:30.971Z,95365.61
2018-04-16T20:24:57.821Z,95378.00
2018-04-16T20:27:24.360Z,95379.50
2018-04-16T20:29:52.315Z,95373.24
2018-04-16T20:32:19.418Z,95361.28
2018-04-16T20:34:46.172Z,95365.36
2018-04-16T20:37:13.422Z,95377.16
2018-04-16T20:39:40.186Z,95382.80
2018-04-16T20:42:06.542Z,95377.69
2018-04-16T20:44:33.304Z,95363.34
2018-04-16T20:47:00.144Z,95363.02
2018-04-16T20:49:26.661Z,95363.19
2018-04-16T20:51:53.327Z,95369.27
2018-04-16T20:54:20.869Z,95363.62
2018-04-16T20:56:47.438Z,95370.38
2018-04-16T20:59:14.072Z,95380.95
2018-04-16T21:01:40.987Z,95363.66
2018-04-16T21:04:08.390Z,95366.15
2018-04-16T21:06:34.796Z,95372.50
2018-04-16T21:09:01.347Z,95366.87
2018-04-16T21:11:27.757Z,95375.59
2018-04-16T21:13:54.428Z,95369.42
2018-04-16T21:16:22.024Z,95364.41
2018-04-16T21:18:48.707Z,95362.52
2018-04-16T21:21:15.235Z,95373.84
2018-04-16T21:23:41.760Z,95362.43
2018-04-16T21:26:08.411Z,95360.88
2018-04-16T21:28:36.029Z,95362.00
2018-04-16T21:31:03.172Z,95368.27
2018-04-16T21:33:29.725Z,95366.54
2018-04-16T21:35:56.713Z,95365.72
2018-04-16T21:38:23.871Z,95361.78
2018-04-16T21:40:50.884Z,95356.38
2018-04-16T21:43:19.361Z,95360.63
2018-04-16T21:45:45.986Z,95367.27
2018-04-16T21:48:12.918Z,95369.21
2018-04-16T21:50:39.798Z,95369.71
2018-04-16T21:53:06.427Z,95370.69
2018-04-16T21:55:33.550Z,95365.47
2018-04-16T21:58:00.036Z,95359.56
2018-04-16T22:00:26.707Z,95351.77
2018-04-16T22:02:56.896Z,95357.25
2018-04-16T22:05:23.541Z,95348.64
2018-04-16T22:07:49.952Z,95355.73
2018-04-16T22:10:16.825Z,95356.33
2018-04-16T22:12:43.612Z,95351.47
2018-04-16T22:15:10.440Z,95355.22
2018-04-16T22:17:36.824Z,95354.63
2018-04-16T22:20:05.659Z,95344.00
2018-04-16T22:22:32.245Z,95350.06
2018-04-16T22:24:59.305Z,95340.37
2018-04-16T22:27:26.090Z,95340.14
2018-04-16T22:29:53.038Z,95346.83
2018-04-16T22:32:19.698Z,95340.76
2018-04-16T22:34:46.592Z,95341.22
2018-04-16T22:37:13.574Z,95342.54
2018-04-16T22:39:40.312Z,95336.78
2018-04-16T22:42:06.764Z,95334.88
2018-04-16T22:44:33.397Z,95328.04
2018-04-16T22:47:01.271Z,95319.64
2018-04-16T22:49:28.235Z,95317.14
2018-04-16T22:51:55.540Z,95320.54
2018-04-16T22:54:22.330Z,95314.91
2018-04-16T22:56:49.317Z,95320.41
2018-04-16T22:59:15.874Z,95332.25
2018-04-16T23:01:42.950Z,95335.53
2018-04-16T23:04:09.868Z,95328.91
2018-04-16T23:06:37.511Z,95319.56
2018-04-16T23:09:04.335Z,95316.46
2018-04-16T23:11:30.913Z,95316.02
2018-04-16T23:13:57.457Z,95315.69
2018-04-16T23:16:24.069Z,95314.36
2018-04-16T23:18:51.452Z,95323.86
2018-04-16T23:21:17.977Z,95319.59
2018-04-16T23:23:44.556Z,95319.16
2018-04-16T23:26:11.629Z,95305.59
2018-04-16T23:28:38.357Z,95313.55
2018-04-16T23:31:05.532Z,95305.91
2018-04-16T23:33:32.491Z,95306.23
2018-04-16T23:35:59.270Z,95300.02
2018-04-16T23:38:25.877Z,95299.72
2018-04-16T23:40:52.803Z,95292.58
2018-04-16T23:43:19.640Z,95297.69
2018-04-16T23:45:46.420Z,95289.89
2018-04-16T23:48:13.133Z,95291.67
2018-04-16T23:50:39.811Z,95299.00
2018-04-16T23:53:06.700Z,95300.02
2018-04-16T23:55:34.596Z,95303.25
2018-04-16T23:58:01.767Z,95308.39
